LYTV/TIV METAR and TAF weather

Enter ICAO airport designator
Station Type Date Time Source
LYTV METAR 2021/09/25 11:30 UTC NOAA

LYTV 251130Z 24006KT 180V300 CAVOK 24/16 Q1021 NOSIG


Station Type Date Time Source
LYTV Decoded METAR 2021/09/25 11:30 UTC NOAA

Tivat, Serbia and Montenegro (LYTV) 42-24N 018-44E 5M
Sep 25, 2021 - 07:30 AM EDT / 2021.09.25 1130 UTC
Wind: from the WSW (240 degrees) at 7 MPH (6 KT) (direction variable):0
Visibility: greater than 7 mile(s):0
Temperature: 75 F (24 C)
Dew Point: 60 F (16 C)
Relative Humidity: 60%
Pressure (altimeter): 30.15 in. Hg (1021 hPa)
ob: LYTV 251130Z 24006KT 180V300 CAVOK 24/16 Q1021 NOSIG
cycle: 11

Station Type Date Time Source
LYTV TAF 2021/09/25 12:26 UTC NOAA

TAF LYTV 251100Z 2512/2612 23007KT CAVOK TX25/2513Z TN10/2603Z

Example: see airport list